METAR EVRA 280250Z 17012KT 9999 OVC005 01/01 Q1005 R18/290195 NOSIG =

Aviation Weather

 

Nordic Significant weather chart SFC- FL450 (to enlarge, right click- view image)

 

 

Significant weather chart FL100-450 for 1200 UTC (to enlarge, right click- view image)

 

 

Surface chart today (to enlarge, right click- view image)

 


Wind and temperature FL050 for 1200 UTC (to enlarge, right click- view image)


Wind and temperature FL390 for 1200 UTC (to enlarge, right click- view image)

Controllers Online

PositionControllerOnline
No controllers currently online

Booked ATC Today

* Times are UTC

The time is now

UTC: 

Local: 

Latvia vACC on twitter